sensor_id;sensor_type;location;lat;lon;timestamp;temperature;humidity
7588;DHT22;3835;48.850;8.938;2023-03-01T00:01:54;-1.90;99.90
7588;DHT22;3835;48.850;8.938;2023-03-01T00:04:21;-1.90;99.90
7588;DHT22;3835;48.850;8.938;2023-03-01T00:06:48;-1.90;99.90
7588;DHT22;3835;48.850;8.938;2023-03-01T00:09:16;-1.90;99.90
7588;DHT22;3835;48.850;8.938;2023-03-01T00:11:44;-1.90;99.90
7588;DHT22;3835;48.850;8.938;2023-03-01T00:14:11;-1.90;99.90
7588;DHT22;3835;48.850;8.938;2023-03-01T00:16:40;-1.90;99.90
7588;DHT22;3835;48.850;8.938;2023-03-01T00:19:08;-2.00;99.90
7588;DHT22;3835;48.850;8.938;2023-03-01T00:21:36;-2.00;99.90
7588;DHT22;3835;48.850;8.938;2023-03-01T00:24:03;-2.00;99.90
7588;DHT22;3835;48.850;8.938;2023-03-01T00:26:31;-2.00;99.90
7588;DHT22;3835;48.850;8.938;2023-03-01T00:28:59;-2.10;99.90
7588;DHT22;3835;48.850;8.938;2023-03-01T00:31:27;-2.10;99.90
7588;DHT22;3835;48.850;8.938;2023-03-01T00:33:55;-2.10;99.90
7588;DHT22;3835;48.850;8.938;2023-03-01T00:36:23;-2.10;99.90
7588;DHT22;3835;48.850;8.938;2023-03-01T00:38:51;-2.10;99.90
7588;DHT22;3835;48.850;8.938;2023-03-01T00:41:19;-2.10;99.90
7588;DHT22;3835;48.850;8.938;2023-03-01T00:43:48;-2.10;99.90
7588;DHT22;3835;48.850;8.938;2023-03-01T00:46:16;-2.20;99.90
7588;DHT22;3835;48.850;8.938;2023-03-01T00:48:43;-2.30;99.90
7588;DHT22;3835;48.850;8.938;2023-03-01T00:51:12;-2.40;99.90
7588;DHT22;3835;48.850;8.938;2023-03-01T00:53:39;-2.30;99.90
7588;DHT22;3835;48.850;8.938;2023-03-01T00:56:07;-2.40;99.90
7588;DHT22;3835;48.850;8.938;2023-03-01T00:58:35;-2.40;99.90
7588;DHT22;3835;48.850;8.938;2023-03-01T01:01:09;-2.40;99.90
7588;DHT22;3835;48.850;8.938;2023-03-01T01:03:43;-2.40;99.90
7588;DHT22;3835;48.850;8.938;2023-03-01T01:06:14;-2.60;99.90
7588;DHT22;3835;48.850;8.938;2023-03-01T01:08:41;-2.70;99.90
7588;DHT22;3835;48.850;8.938;2023-03-01T01:11:09;-2.70;99.90
7588;DHT22;3835;48.850;8.938;2023-03-01T01:13:36;-2.70;99.90
7588;DHT22;3835;48.850;8.938;2023-03-01T01:16:04;-2.70;99.90
7588;DHT22;3835;48.850;8.938;2023-03-01T01:18:32;-2.80;99.90
7588;DHT22;3835;48.850;8.938;2023-03-01T01:21:03;-2.70;99.90
7588;DHT22;3835;48.850;8.938;2023-03-01T01:23:30;-2.70;99.90
7588;DHT22;3835;48.850;8.938;2023-03-01T01:25:57;-2.60;99.90
7588;DHT22;3835;48.850;8.938;2023-03-01T01:28:29;-2.60;99.90
7588;DHT22;3835;48.850;8.938;2023-03-01T01:30:55;-2.50;99.90
7588;DHT22;3835;48.850;8.938;2023-03-01T01:33:22;-2.50;99.90
7588;DHT22;3835;48.850;8.938;2023-03-01T01:35:50;-2.50;99.90
7588;DHT22;3835;48.850;8.938;2023-03-01T01:38:17;-2.50;99.90
7588;DHT22;3835;48.850;8.938;2023-03-01T01:40:44;-2.50;99.90
7588;DHT22;3835;48.850;8.938;2023-03-01T01:43:18;-2.50;99.90
7588;DHT22;3835;48.850;8.938;2023-03-01T01:45:45;-2.50;99.90
7588;DHT22;3835;48.850;8.938;2023-03-01T01:48:15;-2.50;99.90
7588;DHT22;3835;48.850;8.938;2023-03-01T01:50:43;-2.60;99.90
7588;DHT22;3835;48.850;8.938;2023-03-01T01:53:14;-2.60;99.90
7588;DHT22;3835;48.850;8.938;2023-03-01T01:55:44;-2.60;99.90
7588;DHT22;3835;48.850;8.938;2023-03-01T01:58:14;-2.60;99.90
7588;DHT22;3835;48.850;8.938;2023-03-01T02:00:41;-2.70;99.90
7588;DHT22;3835;48.850;8.938;2023-03-01T02:03:11;-2.70;99.90
7588;DHT22;3835;48.850;8.938;2023-03-01T02:05:44;-2.70;99.90
7588;DHT22;3835;48.850;8.938;2023-03-01T02:08:13;-2.60;99.90
7588;DHT22;3835;48.850;8.938;2023-03-01T02:10:42;-2.70;99.90
7588;DHT22;3835;48.850;8.938;2023-03-01T02:13:09;-2.90;99.90
7588;DHT22;3835;48.850;8.938;2023-03-01T02:15:38;-2.90;99.90
7588;DHT22;3835;48.850;8.938;2023-03-01T02:18:07;-2.90;99.90
7588;DHT22;3835;48.850;8.938;2023-03-01T02:20:40;-2.80;99.90
7588;DHT22;3835;48.850;8.938;2023-03-01T02:23:13;-2.80;99.90
7588;DHT22;3835;48.850;8.938;2023-03-01T02:25:47;-2.80;99.90
7588;DHT22;3835;48.850;8.938;2023-03-01T02:28:26;-2.70;99.90
7588;DHT22;3835;48.850;8.938;2023-03-01T02:30:53;-2.80;99.90
7588;DHT22;3835;48.850;8.938;2023-03-01T02:33:38;-2.80;99.90
7588;DHT22;3835;48.850;8.938;2023-03-01T02:36:08;-2.80;99.90
7588;DHT22;3835;48.850;8.938;2023-03-01T02:38:37;-2.70;99.90
7588;DHT22;3835;48.850;8.938;2023-03-01T02:41:04;-2.70;99.90
7588;DHT22;3835;48.850;8.938;2023-03-01T02:43:34;-2.70;99.90
7588;DHT22;3835;48.850;8.938;2023-03-01T02:46:04;-2.80;99.90
7588;DHT22;3835;48.850;8.938;2023-03-01T02:48:40;-2.80;99.90
7588;DHT22;3835;48.850;8.938;2023-03-01T02:51:18;-2.70;99.90
7588;DHT22;3835;48.850;8.938;2023-03-01T02:53:56;-2.60;99.90
7588;DHT22;3835;48.850;8.938;2023-03-01T02:56:26;-2.80;99.90
7588;DHT22;3835;48.850;8.938;2023-03-01T02:58:54;-2.70;99.90
7588;DHT22;3835;48.850;8.938;2023-03-01T03:01:26;-2.60;99.90
7588;DHT22;3835;48.850;8.938;2023-03-01T03:04:02;-2.50;99.90
7588;DHT22;3835;48.850;8.938;2023-03-01T03:06:29;-2.30;99.90
7588;DHT22;3835;48.850;8.938;2023-03-01T03:08:56;-2.20;99.90
7588;DHT22;3835;48.850;8.938;2023-03-01T03:11:22;-2.10;99.90
7588;DHT22;3835;48.850;8.938;2023-03-01T03:13:49;-2.00;99.90
7588;DHT22;3835;48.850;8.938;2023-03-01T03:16:19;-1.90;99.90
7588;DHT22;3835;48.850;8.938;2023-03-01T03:18:46;-2.00;99.90
7588;DHT22;3835;48.850;8.938;2023-03-01T03:21:13;-2.20;99.90
7588;DHT22;3835;48.850;8.938;2023-03-01T03:23:40;-2.10;99.90
7588;DHT22;3835;48.850;8.938;2023-03-01T03:26:06;-2.00;99.90
7588;DHT22;3835;48.850;8.938;2023-03-01T03:28:34;-1.90;99.90
7588;DHT22;3835;48.850;8.938;2023-03-01T03:31:06;-1.90;99.90
7588;DHT22;3835;48.850;8.938;2023-03-01T03:33:34;-1.80;99.90
7588;DHT22;3835;48.850;8.938;2023-03-01T03:36:01;-1.80;99.90
7588;DHT22;3835;48.850;8.938;2023-03-01T03:38:28;-1.80;99.90
7588;DHT22;3835;48.850;8.938;2023-03-01T03:41:00;-1.70;99.90
7588;DHT22;3835;48.850;8.938;2023-03-01T03:43:28;-1.70;99.90
7588;DHT22;3835;48.850;8.938;2023-03-01T03:45:55;-1.60;99.90
7588;DHT22;3835;48.850;8.938;2023-03-01T03:48:24;-1.60;99.90
7588;DHT22;3835;48.850;8.938;2023-03-01T03:50:54;-1.60;99.90
7588;DHT22;3835;48.850;8.938;2023-03-01T03:53:21;-1.70;99.90
7588;DHT22;3835;48.850;8.938;2023-03-01T03:55:49;-1.60;99.90
7588;DHT22;3835;48.850;8.938;2023-03-01T03:58:17;-1.50;99.90
7588;DHT22;3835;48.850;8.938;2023-03-01T04:00:46;-1.50;99.90
7588;DHT22;3835;48.850;8.938;2023-03-01T04:03:15;-1.50;99.90
7588;DHT22;3835;48.850;8.938;2023-03-01T04:05:42;-1.50;99.90
7588;DHT22;3835;48.850;8.938;2023-03-01T04:08:10;-1.60;99.90
7588;DHT22;3835;48.850;8.938;2023-03-01T04:10:39;-1.50;99.90
7588;DHT22;3835;48.850;8.938;2023-03-01T04:13:08;-1.50;99.90
7588;DHT22;3835;48.850;8.938;2023-03-01T04:15:36;-1.50;99.90
7588;DHT22;3835;48.850;8.938;2023-03-01T04:18:03;-1.50;99.90
7588;DHT22;3835;48.850;8.938;2023-03-01T04:20:33;-1.40;99.90
7588;DHT22;3835;48.850;8.938;2023-03-01T04:23:02;-1.40;99.90
7588;DHT22;3835;48.850;8.938;2023-03-01T04:25:38;-1.50;99.90
7588;DHT22;3835;48.850;8.938;2023-03-01T04:28:05;-1.50;99.90
7588;DHT22;3835;48.850;8.938;2023-03-01T04:30:32;-1.40;99.90
7588;DHT22;3835;48.850;8.938;2023-03-01T04:33:02;-1.50;99.90
7588;DHT22;3835;48.850;8.938;2023-03-01T04:35:29;-1.40;99.90
7588;DHT22;3835;48.850;8.938;2023-03-01T04:37:56;-1.40;99.90
7588;DHT22;3835;48.850;8.938;2023-03-01T04:40:23;-1.40;99.90
7588;DHT22;3835;48.850;8.938;2023-03-01T04:42:51;-1.40;99.90
7588;DHT22;3835;48.850;8.938;2023-03-01T04:45:17;-1.40;99.90
7588;DHT22;3835;48.850;8.938;2023-03-01T04:47:46;-1.40;99.90
7588;DHT22;3835;48.850;8.938;2023-03-01T04:50:14;-1.40;99.90
7588;DHT22;3835;48.850;8.938;2023-03-01T04:52:42;-1.40;99.90
7588;DHT22;3835;48.850;8.938;2023-03-01T04:55:09;-1.40;99.90
7588;DHT22;3835;48.850;8.938;2023-03-01T04:57:36;-1.40;99.90
7588;DHT22;3835;48.850;8.938;2023-03-01T05:00:07;-1.40;99.90
7588;DHT22;3835;48.850;8.938;2023-03-01T05:02:46;-1.40;99.90
7588;DHT22;3835;48.850;8.938;2023-03-01T05:05:14;-1.40;99.90
7588;DHT22;3835;48.850;8.938;2023-03-01T05:07:40;-1.40;99.90
7588;DHT22;3835;48.850;8.938;2023-03-01T05:10:08;-1.40;99.90
7588;DHT22;3835;48.850;8.938;2023-03-01T05:12:35;-1.50;99.90
7588;DHT22;3835;48.850;8.938;2023-03-01T05:15:03;-1.50;99.90
7588;DHT22;3835;48.850;8.938;2023-03-01T05:17:33;-1.50;99.90
7588;DHT22;3835;48.850;8.938;2023-03-01T05:20:00;-1.50;99.90
7588;DHT22;3835;48.850;8.938;2023-03-01T05:22:32;-1.50;99.90
7588;DHT22;3835;48.850;8.938;2023-03-01T05:24:59;-1.40;99.90
7588;DHT22;3835;48.850;8.938;2023-03-01T05:27:25;-1.40;99.90
7588;DHT22;3835;48.850;8.938;2023-03-01T05:29:52;-1.40;99.90
7588;DHT22;3835;48.850;8.938;2023-03-01T05:32:19;-1.50;99.90
7588;DHT22;3835;48.850;8.938;2023-03-01T05:34:47;-1.60;99.90
7588;DHT22;3835;48.850;8.938;2023-03-01T05:37:14;-1.70;99.90
7588;DHT22;3835;48.850;8.938;2023-03-01T05:39:41;-1.60;99.90
7588;DHT22;3835;48.850;8.938;2023-03-01T05:42:11;-1.60;99.90
7588;DHT22;3835;48.850;8.938;2023-03-01T05:44:38;-1.70;99.90
7588;DHT22;3835;48.850;8.938;2023-03-01T05:47:04;-1.60;99.90
7588;DHT22;3835;48.850;8.938;2023-03-01T05:49:31;-1.70;99.90
7588;DHT22;3835;48.850;8.938;2023-03-01T05:52:00;-1.80;99.90
7588;DHT22;3835;48.850;8.938;2023-03-01T05:54:26;-1.90;99.90
7588;DHT22;3835;48.850;8.938;2023-03-01T05:56:53;-1.90;99.90
7588;DHT22;3835;48.850;8.938;2023-03-01T05:59:20;-2.00;99.90
7588;DHT22;3835;48.850;8.938;2023-03-01T06:01:47;-2.10;99.90
7588;DHT22;3835;48.850;8.938;2023-03-01T06:04:13;-2.10;99.90
7588;DHT22;3835;48.850;8.938;2023-03-01T06:06:40;-2.20;99.90
7588;DHT22;3835;48.850;8.938;2023-03-01T06:09:08;-2.20;99.90
7588;DHT22;3835;48.850;8.938;2023-03-01T06:11:35;-2.20;99.90
7588;DHT22;3835;48.850;8.938;2023-03-01T06:14:03;-2.30;99.90
7588;DHT22;3835;48.850;8.938;2023-03-01T06:16:30;-2.30;99.90
7588;DHT22;3835;48.850;8.938;2023-03-01T06:18:56;-2.30;99.90
7588;DHT22;3835;48.850;8.938;2023-03-01T06:21:23;-2.40;99.90
7588;DHT22;3835;48.850;8.938;2023-03-01T06:23:50;-2.30;99.90
7588;DHT22;3835;48.850;8.938;2023-03-01T06:26:18;-2.40;99.90
7588;DHT22;3835;48.850;8.938;2023-03-01T06:28:45;-2.30;99.90
7588;DHT22;3835;48.850;8.938;2023-03-01T06:31:12;-2.30;99.90
7588;DHT22;3835;48.850;8.938;2023-03-01T06:33:39;-2.40;99.90
7588;DHT22;3835;48.850;8.938;2023-03-01T06:36:07;-2.30;99.90
7588;DHT22;3835;48.850;8.938;2023-03-01T06:38:35;-2.30;99.90
7588;DHT22;3835;48.850;8.938;2023-03-01T06:41:01;-2.20;99.90
7588;DHT22;3835;48.850;8.938;2023-03-01T06:43:29;-2.20;99.90
7588;DHT22;3835;48.850;8.938;2023-03-01T06:45:56;-2.10;99.90
7588;DHT22;3835;48.850;8.938;2023-03-01T06:48:23;-2.10;99.90
7588;DHT22;3835;48.850;8.938;2023-03-01T06:50:50;-2.10;99.90
7588;DHT22;3835;48.850;8.938;2023-03-01T06:53:17;-2.10;99.90
7588;DHT22;3835;48.850;8.938;2023-03-01T06:55:44;-2.10;99.90
7588;DHT22;3835;48.850;8.938;2023-03-01T06:58:10;-2.00;99.90
7588;DHT22;3835;48.850;8.938;2023-03-01T07:00:38;-2.00;99.90
7588;DHT22;3835;48.850;8.938;2023-03-01T07:03:06;-2.00;99.90
7588;DHT22;3835;48.850;8.938;2023-03-01T07:05:33;-2.10;99.90
7588;DHT22;3835;48.850;8.938;2023-03-01T07:08:00;-2.10;99.90
7588;DHT22;3835;48.850;8.938;2023-03-01T07:10:27;-2.20;99.90
7588;DHT22;3835;48.850;8.938;2023-03-01T07:12:55;-2.10;99.90
7588;DHT22;3835;48.850;8.938;2023-03-01T07:15:22;-2.10;99.90
7588;DHT22;3835;48.850;8.938;2023-03-01T07:17:50;-2.00;99.90
7588;DHT22;3835;48.850;8.938;2023-03-01T07:20:18;-1.90;99.90
7588;DHT22;3835;48.850;8.938;2023-03-01T07:22:47;-1.90;99.90
7588;DHT22;3835;48.850;8.938;2023-03-01T07:25:14;-1.80;99.90
7588;DHT22;3835;48.850;8.938;2023-03-01T07:27:41;-1.70;99.90
7588;DHT22;3835;48.850;8.938;2023-03-01T07:30:09;-1.70;99.90
7588;DHT22;3835;48.850;8.938;2023-03-01T07:32:36;-1.70;99.90
7588;DHT22;3835;48.850;8.938;2023-03-01T07:35:05;-1.60;99.90
7588;DHT22;3835;48.850;8.938;2023-03-01T07:37:32;-1.60;99.90
7588;DHT22;3835;48.850;8.938;2023-03-01T07:39:59;-1.50;99.90
7588;DHT22;3835;48.850;8.938;2023-03-01T07:42:26;-1.30;99.90
7588;DHT22;3835;48.850;8.938;2023-03-01T07:44:52;-1.20;99.90
7588;DHT22;3835;48.850;8.938;2023-03-01T07:47:19;-1.20;99.90
7588;DHT22;3835;48.850;8.938;2023-03-01T07:49:46;-1.10;99.90
7588;DHT22;3835;48.850;8.938;2023-03-01T07:52:14;-1.00;99.90
7588;DHT22;3835;48.850;8.938;2023-03-01T07:54:43;-0.90;99.90
7588;DHT22;3835;48.850;8.938;2023-03-01T07:57:10;-0.80;99.90
7588;DHT22;3835;48.850;8.938;2023-03-01T07:59:37;-0.70;99.90
7588;DHT22;3835;48.850;8.938;2023-03-01T08:02:04;-0.60;99.90
7588;DHT22;3835;48.850;8.938;2023-03-01T08:04:31;-0.50;99.90
7588;DHT22;3835;48.850;8.938;2023-03-01T08:06:58;-0.50;99.90
7588;DHT22;3835;48.850;8.938;2023-03-01T08:09:26;-0.50;99.90
7588;DHT22;3835;48.850;8.938;2023-03-01T08:11:53;-0.50;99.90
7588;DHT22;3835;48.850;8.938;2023-03-01T08:14:20;-0.50;99.90
7588;DHT22;3835;48.850;8.938;2023-03-01T08:16:49;-0.40;99.90
7588;DHT22;3835;48.850;8.938;2023-03-01T08:19:16;-0.30;99.90
7588;DHT22;3835;48.850;8.938;2023-03-01T08:21:42;-0.40;99.90
7588;DHT22;3835;48.850;8.938;2023-03-01T08:24:09;-0.50;99.90
7588;DHT22;3835;48.850;8.938;2023-03-01T08:26:37;-0.50;99.90
7588;DHT22;3835;48.850;8.938;2023-03-01T08:29:04;-0.40;99.90
7588;DHT22;3835;48.850;8.938;2023-03-01T08:31:32;-0.40;99.90
7588;DHT22;3835;48.850;8.938;2023-03-01T08:34:03;-0.20;99.90
7588;DHT22;3835;48.850;8.938;2023-03-01T08:36:32;-0.20;99.90
7588;DHT22;3835;48.850;8.938;2023-03-01T08:38:59;-0.10;99.90
7588;DHT22;3835;48.850;8.938;2023-03-01T08:41:26;-0.10;99.90
7588;DHT22;3835;48.850;8.938;2023-03-01T08:43:55;0.00;99.90
7588;DHT22;3835;48.850;8.938;2023-03-01T08:46:24;0.10;99.90
7588;DHT22;3835;48.850;8.938;2023-03-01T08:48:51;0.30;99.90
7588;DHT22;3835;48.850;8.938;2023-03-01T08:51:19;0.40;99.90
7588;DHT22;3835;48.850;8.938;2023-03-01T08:53:47;0.40;99.90
7588;DHT22;3835;48.850;8.938;2023-03-01T08:56:15;0.40;99.90
7588;DHT22;3835;48.850;8.938;2023-03-01T08:58:44;0.50;99.90
7588;DHT22;3835;48.850;8.938;2023-03-01T09:01:13;0.70;99.90
7588;DHT22;3835;48.850;8.938;2023-03-01T09:03:41;0.80;99.90
7588;DHT22;3835;48.850;8.938;2023-03-01T09:06:08;0.80;99.90
7588;DHT22;3835;48.850;8.938;2023-03-01T09:08:35;0.80;99.90
7588;DHT22;3835;48.850;8.938;2023-03-01T09:11:02;0.80;99.90
7588;DHT22;3835;48.850;8.938;2023-03-01T09:13:29;0.90;99.90
7588;DHT22;3835;48.850;8.938;2023-03-01T09:15:57;1.00;99.90
7588;DHT22;3835;48.850;8.938;2023-03-01T09:18:25;1.20;99.90
7588;DHT22;3835;48.850;8.938;2023-03-01T09:20:52;1.30;99.90
7588;DHT22;3835;48.850;8.938;2023-03-01T09:23:20;1.30;99.90
7588;DHT22;3835;48.850;8.938;2023-03-01T09:25:47;1.40;99.90
7588;DHT22;3835;48.850;8.938;2023-03-01T09:28:14;1.40;99.90
7588;DHT22;3835;48.850;8.938;2023-03-01T09:30:40;1.30;99.90
7588;DHT22;3835;48.850;8.938;2023-03-01T09:33:07;1.40;99.90
7588;DHT22;3835;48.850;8.938;2023-03-01T09:35:41;1.60;99.90
7588;DHT22;3835;48.850;8.938;2023-03-01T09:38:12;1.70;99.90
7588;DHT22;3835;48.850;8.938;2023-03-01T09:40:43;1.80;99.90
7588;DHT22;3835;48.850;8.938;2023-03-01T09:43:18;1.80;99.90
7588;DHT22;3835;48.850;8.938;2023-03-01T09:45:49;1.80;99.90
7588;DHT22;3835;48.850;8.938;2023-03-01T09:48:21;2.00;99.90
7588;DHT22;3835;48.850;8.938;2023-03-01T09:50:50;2.10;99.90
7588;DHT22;3835;48.850;8.938;2023-03-01T09:53:20;2.30;99.90
7588;DHT22;3835;48.850;8.938;2023-03-01T09:55:52;2.20;99.90
7588;DHT22;3835;48.850;8.938;2023-03-01T09:58:37;2.20;99.90
7588;DHT22;3835;48.850;8.938;2023-03-01T10:01:19;2.10;99.90
7588;DHT22;3835;48.850;8.938;2023-03-01T10:04:00;2.20;99.90
7588;DHT22;3835;48.850;8.938;2023-03-01T10:06:29;2.40;99.90
7588;DHT22;3835;48.850;8.938;2023-03-01T10:08:59;2.50;99.90
7588;DHT22;3835;48.850;8.938;2023-03-01T10:11:30;2.40;99.90
7588;DHT22;3835;48.850;8.938;2023-03-01T10:14:03;2.30;99.90
7588;DHT22;3835;48.850;8.938;2023-03-01T10:16:40;2.50;99.90
7588;DHT22;3835;48.850;8.938;2023-03-01T10:19:12;2.50;99.90
7588;DHT22;3835;48.850;8.938;2023-03-01T10:21:45;2.30;99.90
7588;DHT22;3835;48.850;8.938;2023-03-01T10:24:14;2.50;99.90
7588;DHT22;3835;48.850;8.938;2023-03-01T10:26:48;2.40;99.90
7588;DHT22;3835;48.850;8.938;2023-03-01T10:29:16;2.50;99.90
7588;DHT22;3835;48.850;8.938;2023-03-01T10:31:46;2.50;99.90
7588;DHT22;3835;48.850;8.938;2023-03-01T10:34:15;2.90;99.90
7588;DHT22;3835;48.850;8.938;2023-03-01T10:36:47;2.50;99.90
7588;DHT22;3835;48.850;8.938;2023-03-01T10:39:18;2.60;99.90
7588;DHT22;3835;48.850;8.938;2023-03-01T10:41:56;2.70;99.90
7588;DHT22;3835;48.850;8.938;2023-03-01T10:44:39;2.80;99.90
7588;DHT22;3835;48.850;8.938;2023-03-01T10:47:14;2.90;99.90
7588;DHT22;3835;48.850;8.938;2023-03-01T10:49:52;3.00;99.90
7588;DHT22;3835;48.850;8.938;2023-03-01T10:52:22;3.20;99.90
7588;DHT22;3835;48.850;8.938;2023-03-01T10:54:55;3.00;99.90
7588;DHT22;3835;48.850;8.938;2023-03-01T10:57:32;2.90;99.90
7588;DHT22;3835;48.850;8.938;2023-03-01T11:00:23;3.00;99.90
7588;DHT22;3835;48.850;8.938;2023-03-01T11:03:03;3.00;99.90
7588;DHT22;3835;48.850;8.938;2023-03-01T11:05:35;3.20;99.90
7588;DHT22;3835;48.850;8.938;2023-03-01T11:08:03;3.30;99.90
7588;DHT22;3835;48.850;8.938;2023-03-01T11:10:32;3.20;99.90
7588;DHT22;3835;48.850;8.938;2023-03-01T11:13:07;3.10;99.90
7588;DHT22;3835;48.850;8.938;2023-03-01T11:15:35;3.40;99.90
7588;DHT22;3835;48.850;8.938;2023-03-01T11:18:02;3.50;99.90
7588;DHT22;3835;48.850;8.938;2023-03-01T11:20:32;3.40;99.90
7588;DHT22;3835;48.850;8.938;2023-03-01T11:23:02;3.40;99.90
7588;DHT22;3835;48.850;8.938;2023-03-01T11:25:35;3.60;99.90
7588;DHT22;3835;48.850;8.938;2023-03-01T11:28:05;3.60;99.90
7588;DHT22;3835;48.850;8.938;2023-03-01T11:30:35;3.60;99.90
7588;DHT22;3835;48.850;8.938;2023-03-01T11:33:13;3.70;99.90
7588;DHT22;3835;48.850;8.938;2023-03-01T11:35:49;3.80;99.90
7588;DHT22;3835;48.850;8.938;2023-03-01T11:38:22;3.80;99.90
7588;DHT22;3835;48.850;8.938;2023-03-01T11:40:54;3.90;99.90
7588;DHT22;3835;48.850;8.938;2023-03-01T11:43:28;3.90;99.90
7588;DHT22;3835;48.850;8.938;2023-03-01T11:49:07;4.00;99.90
7588;DHT22;3835;48.850;8.938;2023-03-01T11:51:44;4.10;99.90
7588;DHT22;3835;48.850;8.938;2023-03-01T11:54:25;4.30;99.90
7588;DHT22;3835;48.850;8.938;2023-03-01T11:57:00;4.20;99.90
7588;DHT22;3835;48.850;8.938;2023-03-01T12:02:34;4.50;99.90
7588;DHT22;3835;48.850;8.938;2023-03-01T12:05:20;4.50;99.90
7588;DHT22;3835;48.850;8.938;2023-03-01T12:07:54;4.50;99.90
7588;DHT22;3835;48.850;8.938;2023-03-01T12:10:26;4.30;99.90
7588;DHT22;3835;48.850;8.938;2023-03-01T12:16:11;4.40;99.90
7588;DHT22;3835;48.850;8.938;2023-03-01T12:21:41;4.50;99.90
7588;DHT22;3835;48.850;8.938;2023-03-01T12:24:25;4.60;99.90
7588;DHT22;3835;48.850;8.938;2023-03-01T12:27:05;4.70;99.90
7588;DHT22;3835;48.850;8.938;2023-03-01T12:29:40;4.70;99.90
7588;DHT22;3835;48.850;8.938;2023-03-01T12:32:29;4.80;99.90
7588;DHT22;3835;48.850;8.938;2023-03-01T12:35:25;4.80;99.90
7588;DHT22;3835;48.850;8.938;2023-03-01T12:37:58;4.90;99.90
7588;DHT22;3835;48.850;8.938;2023-03-01T12:40:37;4.90;99.90
7588;DHT22;3835;48.850;8.938;2023-03-01T12:43:22;5.00;99.90
7588;DHT22;3835;48.850;8.938;2023-03-01T12:46:08;5.20;99.90
7588;DHT22;3835;48.850;8.938;2023-03-01T12:48:43;5.20;99.90
7588;DHT22;3835;48.850;8.938;2023-03-01T12:51:14;5.20;99.90
7588;DHT22;3835;48.850;8.938;2023-03-01T12:53:45;5.30;99.90
7588;DHT22;3835;48.850;8.938;2023-03-01T12:56:16;5.30;99.90
7588;DHT22;3835;48.850;8.938;2023-03-01T12:58:56;5.40;99.90
7588;DHT22;3835;48.850;8.938;2023-03-01T13:01:36;5.30;99.90
7588;DHT22;3835;48.850;8.938;2023-03-01T13:04:28;5.40;99.90
7588;DHT22;3835;48.850;8.938;2023-03-01T13:07:14;5.50;99.90
7588;DHT22;3835;48.850;8.938;2023-03-01T13:09:52;5.30;99.90
7588;DHT22;3835;48.850;8.938;2023-03-01T13:12:56;5.40;99.90
7588;DHT22;3835;48.850;8.938;2023-03-01T13:15:34;5.50;99.90
7588;DHT22;3835;48.850;8.938;2023-03-01T13:18:24;5.50;99.90
7588;DHT22;3835;48.850;8.938;2023-03-01T13:20:53;5.50;99.90
7588;DHT22;3835;48.850;8.938;2023-03-01T13:23:28;5.40;99.90
7588;DHT22;3835;48.850;8.938;2023-03-01T13:26:14;5.20;99.90
7588;DHT22;3835;48.850;8.938;2023-03-01T13:28:52;5.20;99.90
7588;DHT22;3835;48.850;8.938;2023-03-01T13:34:50;5.40;99.90
7588;DHT22;3835;48.850;8.938;2023-03-01T13:37:26;5.40;99.90
7588;DHT22;3835;48.850;8.938;2023-03-01T13:39:55;5.40;99.90
7588;DHT22;3835;48.850;8.938;2023-03-01T13:42:43;5.40;99.90
7588;DHT22;3835;48.850;8.938;2023-03-01T13:48:50;5.20;99.90
7588;DHT22;3835;48.850;8.938;2023-03-01T13:51:24;5.20;99.90
7588;DHT22;3835;48.850;8.938;2023-03-01T13:53:52;5.20;99.90
7588;DHT22;3835;48.850;8.938;2023-03-01T13:56:24;5.10;99.90
7588;DHT22;3835;48.850;8.938;2023-03-01T13:58:53;5.10;99.90
7588;DHT22;3835;48.850;8.938;2023-03-01T14:01:26;5.10;99.90
7588;DHT22;3835;48.850;8.938;2023-03-01T14:04:37;5.10;99.90
7588;DHT22;3835;48.850;8.938;2023-03-01T14:07:20;5.20;99.90
7588;DHT22;3835;48.850;8.938;2023-03-01T14:12:39;5.20;99.90
7588;DHT22;3835;48.850;8.938;2023-03-01T14:18:06;5.10;99.90
7588;DHT22;3835;48.850;8.938;2023-03-01T14:20:41;5.10;99.90
7588;DHT22;3835;48.850;8.938;2023-03-01T14:23:13;5.10;99.90
7588;DHT22;3835;48.850;8.938;2023-03-01T14:25:47;5.20;99.90
7588;DHT22;3835;48.850;8.938;2023-03-01T14:28:16;5.20;99.90
7588;DHT22;3835;48.850;8.938;2023-03-01T14:30:45;5.30;99.90
7588;DHT22;3835;48.850;8.938;2023-03-01T14:33:20;5.30;99.90
7588;DHT22;3835;48.850;8.938;2023-03-01T14:35:54;5.30;99.90
7588;DHT22;3835;48.850;8.938;2023-03-01T14:38:23;5.30;99.90
7588;DHT22;3835;48.850;8.938;2023-03-01T14:40:58;5.30;99.90
7588;DHT22;3835;48.850;8.938;2023-03-01T14:43:25;5.30;99.90
7588;DHT22;3835;48.850;8.938;2023-03-01T14:45:52;5.30;99.90
7588;DHT22;3835;48.850;8.938;2023-03-01T14:48:20;5.30;99.90
7588;DHT22;3835;48.850;8.938;2023-03-01T14:50:47;5.20;99.90
7588;DHT22;3835;48.850;8.938;2023-03-01T14:53:17;5.30;99.90
7588;DHT22;3835;48.850;8.938;2023-03-01T14:55:48;5.30;99.90
7588;DHT22;3835;48.850;8.938;2023-03-01T14:58:20;5.30;99.90
7588;DHT22;3835;48.850;8.938;2023-03-01T15:00:50;5.30;99.90
7588;DHT22;3835;48.850;8.938;2023-03-01T15:03:23;5.20;99.90
7588;DHT22;3835;48.850;8.938;2023-03-01T15:05:51;5.20;99.90
7588;DHT22;3835;48.850;8.938;2023-03-01T15:08:21;5.20;99.90
7588;DHT22;3835;48.850;8.938;2023-03-01T15:10:59;5.20;99.90
7588;DHT22;3835;48.850;8.938;2023-03-01T15:13:29;5.20;99.90
7588;DHT22;3835;48.850;8.938;2023-03-01T15:16:03;5.20;99.90
7588;DHT22;3835;48.850;8.938;2023-03-01T15:18:31;5.20;99.90
7588;DHT22;3835;48.850;8.938;2023-03-01T15:21:06;5.20;99.90
7588;DHT22;3835;48.850;8.938;2023-03-01T15:23:34;5.20;99.90
7588;DHT22;3835;48.850;8.938;2023-03-01T15:26:03;5.20;99.90
7588;DHT22;3835;48.850;8.938;2023-03-01T15:28:32;5.10;99.90
7588;DHT22;3835;48.850;8.938;2023-03-01T15:31:03;5.20;99.90
7588;DHT22;3835;48.850;8.938;2023-03-01T15:33:35;5.20;99.90
7588;DHT22;3835;48.850;8.938;2023-03-01T15:36:30;5.10;99.90
7588;DHT22;3835;48.850;8.938;2023-03-01T15:38:58;5.20;99.90
7588;DHT22;3835;48.850;8.938;2023-03-01T15:41:28;5.10;99.90
7588;DHT22;3835;48.850;8.938;2023-03-01T15:43:58;5.10;99.90
7588;DHT22;3835;48.850;8.938;2023-03-01T15:46:27;5.00;99.90
7588;DHT22;3835;48.850;8.938;2023-03-01T15:48:56;5.00;99.90
7588;DHT22;3835;48.850;8.938;2023-03-01T15:51:32;5.00;99.90
7588;DHT22;3835;48.850;8.938;2023-03-01T15:54:02;5.00;99.90
7588;DHT22;3835;48.850;8.938;2023-03-01T15:56:30;5.00;99.90
7588;DHT22;3835;48.850;8.938;2023-03-01T15:58:59;5.00;99.90
7588;DHT22;3835;48.850;8.938;2023-03-01T16:01:26;5.00;99.90
7588;DHT22;3835;48.850;8.938;2023-03-01T16:03:53;5.00;99.90
7588;DHT22;3835;48.850;8.938;2023-03-01T16:06:22;4.90;99.90
7588;DHT22;3835;48.850;8.938;2023-03-01T16:08:48;4.90;99.90
7588;DHT22;3835;48.850;8.938;2023-03-01T16:11:17;4.90;99.90
7588;DHT22;3835;48.850;8.938;2023-03-01T16:13:45;4.90;99.90
7588;DHT22;3835;48.850;8.938;2023-03-01T16:16:13;4.90;99.90
7588;DHT22;3835;48.850;8.938;2023-03-01T16:18:42;4.80;99.90
7588;DHT22;3835;48.850;8.938;2023-03-01T16:21:14;4.80;99.90
7588;DHT22;3835;48.850;8.938;2023-03-01T16:23:43;4.70;99.90
7588;DHT22;3835;48.850;8.938;2023-03-01T16:26:10;4.70;99.90
7588;DHT22;3835;48.850;8.938;2023-03-01T16:28:38;4.80;99.90
7588;DHT22;3835;48.850;8.938;2023-03-01T16:31:06;4.70;99.90
7588;DHT22;3835;48.850;8.938;2023-03-01T16:33:33;4.60;99.90
7588;DHT22;3835;48.850;8.938;2023-03-01T16:36:00;4.60;99.90
7588;DHT22;3835;48.850;8.938;2023-03-01T16:38:28;4.50;99.90
7588;DHT22;3835;48.850;8.938;2023-03-01T16:40:55;4.50;99.90
7588;DHT22;3835;48.850;8.938;2023-03-01T16:43:21;4.40;99.90
7588;DHT22;3835;48.850;8.938;2023-03-01T16:45:48;4.40;99.90
7588;DHT22;3835;48.850;8.938;2023-03-01T16:48:16;4.30;99.90
7588;DHT22;3835;48.850;8.938;2023-03-01T16:50:43;4.20;99.90
7588;DHT22;3835;48.850;8.938;2023-03-01T16:53:10;4.20;99.90
7588;DHT22;3835;48.850;8.938;2023-03-01T16:55:37;4.20;99.90